Report METAR

 

LIBV - Gioia Del Colle, Italy
Distance from station: SSE 15km
Dati ricevuti: 24/06/2021 07:55
Parz. nuvoloso
Parz. nuvoloso
 Vento da E
Vento: E 7 km/h
Temperatura: 29°C
Indice di Calore: 29°C
P.to Rugiada: 17°C
Umidità: 48%
Pressione: 1016 hPa
Nuvole: Parz. nuvoloso
Visibility: 9 km
2021/06/24 05:55 LIBV 240555Z 08004KT 9000 NSC 29/17 Q1016 RMK SCT FEW080 SCT130 VIS MIN 9000 WIND THR32 08008KT WIND THR14 08004KT BLU
LIBD - Bari/Palese Macc, Italy
Distance from station: NNO 26km
Dati ricevuti: 24/06/2021 08:50
Sereno
Sereno
 Vento da Variabile
Vento: Variabile 2 km/h
Temperatura: 35°C
P.to Rugiada: 14°C
Umidità: 28%
Pressione: 1016 hPa
Riassunto: Sereno
Visibility: superiore a 10 km
2021/06/24 06:50 LIBD 240650Z VRB01KT CAVOK 35/14 Q1016
LIBH - Marina Di Ginosa, Italy
Distance from station: S 53km
Dati ricevuti: 24/06/2021 07:55
Mist, Parz. Nuvoloso
Mist, Parz. Nuvoloso
 Vento da Variabile
Vento: Variabile 6 km/h
Temperatura: 26°C
P.to Rugiada: 24°C
Umidità: 89%
Pressione: 1015 hPa
Riassunto: Mist
Nuvole: Parz. nuvoloso
Visibility: 3 km
2021/06/24 05:55 LIBH 240555Z VRB03KT 3000 BR NSC 26/24 Q1015 RMK BKN BKN060 QUK 1 QUL 0 VIS MAR 3 KM VIS MIN 3000
 
LIBG - Grottaglie(Civ/A, Italy
Distance from station: SE 61km
Dati ricevuti: 23/06/2021 19:50
DATI Obsoleti
Sereno
Sereno
 Vento da OSO
Vento: OSO 9 km/h
Temperatura: 30°C
Indice di Calore: 33°C
P.to Rugiada: 22°C
Umidità: 62%
Pressione: 1015 hPa
Riassunto: Sereno
Visibility: superiore a 10 km
2021/06/23 17:50 LIBG 231750Z 25005KT CAVOK 30/22 Q1015
LIBR - Brindisi/Casale, Italy
Distance from station: ESE 96km
Dati ricevuti: 24/06/2021 08:50
Sereno
Sereno
 Vento da S
Vento: S 6 km/h
Temperatura: 32°C
Indice di Calore: 34°C
P.to Rugiada: 19°C
Umidità: 46%
Pressione: 1015 hPa
Riassunto: Sereno
Visibility: superiore a 10 km
2021/06/24 06:50 LIBR 240650Z 17003KT 140V200 CAVOK 32/19 Q1015
LIBA - Amendola (it-Afb, Italy
Distance from station: NO 118km
Dati ricevuti: 24/06/2021 07:55
Parz. nuvoloso
Parz. nuvoloso
 Vento da SSO
Vento: SSO 7 km/h
Temperatura: 29°C
Indice di Calore: 29°C
P.to Rugiada: 15°C
Umidità: 43%
Pressione: 1015 hPa
Nuvole: Parz. nuvoloso
Visibility: 8 km
2021/06/24 05:55 LIBA 240555Z 21004KT 8000 NSC 29/15 Q1015 RMK SCT SCT150 VIS MIN 8000 WIND THR11 18002KT WIND THR29 /////KT BLU
 
LIBF - Foggia/Gino Lisa, Italy
Distance from station: ONO 126km
Dati ricevuti: 23/06/2021 17:50
DATI Obsoleti
Sereno
Sereno
 Vento da E
Vento: E 15 km/h
Temperatura: 34°C
P.to Rugiada: 16°C
Umidità: 34%
Pressione: 1012 hPa
Riassunto: Sereno
Visibility: superiore a 10 km
2021/06/23 15:50 LIBF 231550Z 08008KT 050V110 CAVOK 34/16 Q1012
LIBN - Lecce (it-Afb), Italy
Distance from station: SE 132km
Dati ricevuti: 24/06/2021 07:55
Parz. nuvoloso
Parz. nuvoloso
 Vento da SSE
Vento: SSE 4 km/h
Temperatura: 28°C
Indice di Calore: 29°C
P.to Rugiada: 19°C
Umidità: 58%
Pressione: 1015 hPa
Nuvole: Parz. nuvoloso
Visibility: 6 km
Cloud details: Parz. nuvoloso 305 m
2021/06/24 05:55 LIBN 240555Z 16002KT 6000 SCT010 28/19 Q1015 RMK BKN SCT060 BKN200 VIS MIN 6000 WIND THR14 19002KT WIND THR32 17002KT WHT